createdAt,value
2023-02-12T00:00:07.788Z,6.10
2023-02-12T00:01:49.410Z,6.20
2023-02-12T00:03:22.518Z,6.20
2023-02-12T00:04:55.564Z,6.20
2023-02-12T00:06:27.697Z,6.20
2023-02-12T00:08:00.812Z,6.10
2023-02-12T00:09:34.352Z,6.20
2023-02-12T00:11:12.784Z,6.20
2023-02-12T00:12:45.865Z,6.20
2023-02-12T00:14:19.064Z,6.20
2023-02-12T00:15:52.197Z,6.20
2023-02-12T00:17:26.664Z,6.20
2023-02-12T00:19:00.868Z,6.20
2023-02-12T00:20:33.930Z,6.10
2023-02-12T00:22:06.064Z,6.20
2023-02-12T00:23:41.105Z,6.20
2023-02-12T00:25:14.727Z,6.20
2023-02-12T00:26:48.452Z,6.20
2023-02-12T00:28:22.213Z,6.20
2023-02-12T00:29:55.302Z,6.20
2023-02-12T00:31:30.632Z,6.20
2023-02-12T00:33:05.353Z,6.20
2023-02-12T00:34:37.611Z,6.20
2023-02-12T00:36:14.417Z,6.20
2023-02-12T00:37:47.482Z,6.20
2023-02-12T00:39:20.685Z,6.20
2023-02-12T00:40:52.929Z,6.20
2023-02-12T00:42:26.028Z,6.20
2023-02-12T00:43:59.283Z,6.20
2023-02-12T00:45:32.967Z,6.20
2023-02-12T00:47:06.393Z,6.20
2023-02-12T00:48:40.853Z,6.20
2023-02-12T00:50:12.954Z,6.20
2023-02-12T00:51:47.317Z,6.20
2023-02-12T00:53:19.711Z,6.20
2023-02-12T00:54:52.783Z,6.20
2023-02-12T00:56:25.896Z,6.20
2023-02-12T00:57:57.975Z,6.20
2023-02-12T00:59:31.948Z,6.20
2023-02-12T01:01:05.137Z,6.20
2023-02-12T01:02:37.460Z,6.30
2023-02-12T01:04:13.298Z,6.30
2023-02-12T01:05:46.430Z,6.30
2023-02-12T01:07:18.521Z,6.20
2023-02-12T01:08:52.652Z,6.20
2023-02-12T01:10:25.373Z,6.20
2023-02-12T01:11:58.463Z,6.20
2023-02-12T01:13:32.779Z,6.20
2023-02-12T01:15:06.677Z,6.20
2023-02-12T01:16:40.280Z,6.20
2023-02-12T01:18:16.174Z,6.20
2023-02-12T01:19:50.983Z,6.20
2023-02-12T01:21:25.794Z,6.30
2023-02-12T01:22:58.856Z,6.20
2023-02-12T01:24:32.147Z,6.20
2023-02-12T01:26:07.410Z,6.20
2023-02-12T01:27:40.929Z,6.30
2023-02-12T01:29:13.978Z,6.20
2023-02-12T01:30:46.463Z,6.20
2023-02-12T01:32:19.638Z,6.20
2023-02-12T01:33:56.160Z,6.20
2023-02-12T01:35:30.571Z,6.20
2023-02-12T01:37:03.697Z,6.20
2023-02-12T01:38:35.920Z,6.20
2023-02-12T01:40:10.367Z,6.20
2023-02-12T01:41:45.553Z,6.20
2023-02-12T01:43:17.665Z,6.20
2023-02-12T01:45:24.006Z,6.20
2023-02-12T01:46:58.780Z,6.20
2023-02-12T01:48:36.450Z,6.20
2023-02-12T01:50:13.949Z,6.20
2023-02-12T01:51:52.327Z,6.30
2023-02-12T01:53:32.550Z,6.30
2023-02-12T01:55:08.877Z,6.30
2023-02-12T01:56:43.186Z,6.30
2023-02-12T01:58:17.308Z,6.30
2023-02-12T01:59:53.974Z,6.30
2023-02-12T02:01:30.112Z,6.20
2023-02-12T02:03:03.751Z,6.20
2023-02-12T02:04:42.661Z,6.20
2023-02-12T02:06:19.869Z,6.10
2023-02-12T02:07:55.702Z,6.20
2023-02-12T02:09:30.510Z,6.10
2023-02-12T02:11:22.861Z,6.10
2023-02-12T02:13:13.512Z,6.10
2023-02-12T02:14:48.236Z,6.10
2023-02-12T02:16:26.882Z,6.10
2023-02-12T02:18:02.575Z,6.10
2023-02-12T02:20:01.525Z,6.10
2023-02-12T02:21:58.483Z,6.10
2023-02-12T02:24:04.402Z,6.10
2023-02-12T02:26:07.229Z,6.10
2023-02-12T02:27:49.824Z,6.10
2023-02-12T02:29:43.142Z,6.10
2023-02-12T02:31:27.199Z,6.20
2023-02-12T02:33:11.049Z,6.20
2023-02-12T02:34:51.695Z,6.10
2023-02-12T02:36:33.085Z,6.10
2023-02-12T02:38:16.675Z,6.10
2023-02-12T02:41:31.552Z,6.20
2023-02-12T02:43:09.233Z,6.20
2023-02-12T02:44:47.154Z,6.30
2023-02-12T02:46:26.158Z,6.20
2023-02-12T02:48:04.390Z,6.20
2023-02-12T02:49:42.193Z,6.20
2023-02-12T02:51:19.544Z,6.20
2023-02-12T02:53:01.952Z,6.20
2023-02-12T02:54:38.906Z,6.20
2023-02-12T02:56:16.263Z,6.20
2023-02-12T02:57:53.622Z,6.20
2023-02-12T02:59:31.740Z,6.20
2023-02-12T03:01:08.679Z,6.10
2023-02-12T03:02:48.893Z,6.10
2023-02-12T03:04:29.633Z,6.10
2023-02-12T03:06:05.466Z,6.10
2023-02-12T03:07:43.107Z,6.20
2023-02-12T03:09:21.129Z,6.20
2023-02-12T03:10:58.692Z,6.20
2023-02-12T03:12:37.738Z,6.10
2023-02-12T03:14:15.145Z,6.10
2023-02-12T03:15:52.612Z,6.10
2023-02-12T03:17:30.710Z,6.10
2023-02-12T03:19:14.668Z,6.20
2023-02-12T03:20:53.126Z,6.10
2023-02-12T03:22:32.010Z,6.00
2023-02-12T04:42:54.372Z,6.00
2023-02-12T05:21:56.984Z,5.80
2023-02-12T05:39:11.253Z,5.50
2023-02-12T06:08:49.251Z,5.70
2023-02-12T06:16:37.562Z,5.60
2023-02-12T06:47:49.493Z,5.60
2023-02-12T06:49:22.635Z,5.60
2023-02-12T06:50:55.867Z,5.50
2023-02-12T06:52:29.346Z,5.50
2023-02-12T06:55:36.335Z,5.50
2023-02-12T07:50:34.560Z,6.10
2023-02-12T08:04:36.811Z,6.50
2023-02-12T08:07:44.316Z,6.60
2023-02-12T08:09:19.652Z,6.60
2023-02-12T08:10:52.744Z,6.60
2023-02-12T08:12:25.904Z,6.60
2023-02-12T08:14:00.105Z,6.60
2023-02-12T08:15:33.198Z,6.70
2023-02-12T08:17:06.344Z,6.80
2023-02-12T08:18:41.138Z,6.80
2023-02-12T08:20:14.602Z,6.90
2023-02-12T08:21:50.055Z,7.00
2023-02-12T08:23:23.170Z,7.00
2023-02-12T08:24:56.270Z,7.00
2023-02-12T08:26:31.440Z,7.10
2023-02-12T08:28:04.638Z,7.10
2023-02-12T08:29:37.921Z,7.20
2023-02-12T08:31:13.000Z,7.40
2023-02-12T08:32:46.224Z,7.50
2023-02-12T08:34:22.048Z,7.50
2023-02-12T08:36:03.097Z,7.50
2023-02-12T08:37:36.190Z,7.50
2023-02-12T08:39:10.761Z,7.60
2023-02-12T08:40:43.898Z,7.50
2023-02-12T08:42:16.999Z,7.60
2023-02-12T08:43:51.431Z,7.50
2023-02-12T08:45:24.509Z,7.50
2023-02-12T08:46:57.709Z,7.50
2023-02-12T08:48:30.939Z,7.50
2023-02-12T08:50:05.984Z,7.50
2023-02-12T08:51:41.403Z,7.70
2023-02-12T08:53:14.756Z,7.70
2023-02-12T08:54:47.887Z,7.70
2023-02-12T08:56:21.257Z,7.70
2023-02-12T08:57:57.851Z,7.70
2023-02-12T08:59:31.320Z,7.70
2023-02-12T09:01:04.632Z,7.50
2023-02-12T09:02:37.772Z,7.40
2023-02-12T09:04:17.802Z,7.30
2023-02-12T09:05:52.446Z,7.20
2023-02-12T09:07:25.656Z,7.30
2023-02-12T09:08:58.730Z,7.40
2023-02-12T09:10:31.819Z,7.50
2023-02-12T09:12:06.103Z,7.50
2023-02-12T09:13:40.013Z,7.60
2023-02-12T09:15:13.128Z,7.60
2023-02-12T09:16:46.298Z,7.70
2023-02-12T09:18:19.470Z,7.90
2023-02-12T09:19:52.532Z,7.70
2023-02-12T09:21:27.225Z,7.80
2023-02-12T09:23:00.419Z,7.80
2023-02-12T09:24:33.843Z,7.90
2023-02-12T09:26:08.395Z,7.90
2023-02-12T09:27:44.645Z,7.90
2023-02-12T09:29:17.684Z,7.90
2023-02-12T09:30:51.464Z,7.70
2023-02-12T09:32:24.611Z,7.70
2023-02-12T09:34:00.614Z,7.60
2023-02-12T09:35:36.518Z,7.60
2023-02-12T09:37:11.007Z,7.50
2023-02-12T09:38:44.504Z,7.50
2023-02-12T09:40:23.002Z,7.50
2023-02-12T09:42:18.371Z,7.40
2023-02-12T09:43:57.616Z,7.30
2023-02-12T09:45:34.903Z,7.40
2023-02-12T09:47:16.271Z,7.40
2023-02-12T09:48:58.284Z,7.30
2023-02-12T09:50:40.767Z,7.50
2023-02-12T09:52:19.004Z,7.60
2023-02-12T09:54:03.569Z,7.60
2023-02-12T09:55:37.323Z,7.70
2023-02-12T09:57:19.137Z,7.90
2023-02-12T09:58:55.236Z,8.00
2023-02-12T10:00:31.586Z,8.30
2023-02-12T10:02:07.673Z,8.40
2023-02-12T10:03:41.309Z,8.50
2023-02-12T10:05:19.111Z,8.40
2023-02-12T10:07:02.840Z,8.40
2023-02-12T10:08:47.672Z,8.30
2023-02-12T10:10:39.138Z,8.20
2023-02-12T10:12:17.994Z,8.10
2023-02-12T10:13:58.790Z,8.00
2023-02-12T10:15:39.551Z,8.10
2023-02-12T10:17:20.821Z,8.10
2023-02-12T10:19:06.806Z,8.20
2023-02-12T10:20:53.726Z,8.10
2023-02-12T10:22:45.464Z,8.10
2023-02-12T10:24:40.859Z,8.00
2023-02-12T10:26:21.882Z,8.00
2023-02-12T10:27:57.603Z,7.80
2023-02-12T10:29:35.093Z,7.70
2023-02-12T10:31:13.179Z,7.70
2023-02-12T10:32:49.137Z,7.90
2023-02-12T10:34:24.809Z,7.90
2023-02-12T10:36:04.682Z,8.00
2023-02-12T10:37:43.635Z,8.10
2023-02-12T10:39:22.835Z,8.30
2023-02-12T10:41:01.737Z,8.40
2023-02-12T10:42:40.263Z,8.50
2023-02-12T10:44:13.547Z,8.40
2023-02-12T10:45:46.671Z,8.50
2023-02-12T10:47:22.257Z,8.60
2023-02-12T10:48:58.900Z,8.50
2023-02-12T10:50:42.562Z,8.60
2023-02-12T10:52:26.369Z,8.80
2023-02-12T10:54:19.986Z,8.90
2023-02-12T10:56:14.756Z,8.80
2023-02-12T10:57:47.897Z,8.90
2023-02-12T10:59:24.871Z,9.00
2023-02-12T11:01:00.816Z,8.90
2023-02-12T11:02:36.132Z,9.00
2023-02-12T11:04:22.672Z,9.00
2023-02-12T11:05:56.080Z,8.90
2023-02-12T11:07:30.056Z,9.00
2023-02-12T11:09:04.568Z,9.10
2023-02-12T11:10:40.184Z,9.10
2023-02-12T11:12:29.485Z,9.10
2023-02-12T11:14:06.170Z,9.10
2023-02-12T11:15:48.100Z,9.20
2023-02-12T11:17:26.457Z,9.00
2023-02-12T11:19:01.372Z,9.20
2023-02-12T11:20:38.464Z,9.30
2023-02-12T11:22:14.580Z,9.50
2023-02-12T11:33:39.059Z,9.90
2023-02-12T12:02:45.205Z,8.40
2023-02-12T12:04:23.135Z,8.50
2023-02-12T12:06:03.910Z,8.30
2023-02-12T12:07:42.488Z,8.40
2023-02-12T12:09:21.558Z,8.10
2023-02-12T12:11:00.952Z,8.30
2023-02-12T12:12:39.834Z,8.20
2023-02-12T12:14:23.631Z,8.20
2023-02-12T12:16:23.132Z,8.20
2023-02-12T12:18:22.154Z,8.30
2023-02-12T12:20:02.509Z,8.20
2023-02-12T12:21:42.085Z,8.30
2023-02-12T12:23:19.884Z,8.30
2023-02-12T12:24:59.278Z,8.40
2023-02-12T12:26:35.708Z,8.30
2023-02-12T12:28:24.874Z,8.40
2023-02-12T12:30:06.681Z,8.50
2023-02-12T12:31:41.653Z,8.50
2023-02-12T12:33:21.845Z,8.60
2023-02-12T12:34:54.906Z,8.70
2023-02-12T12:36:51.865Z,8.70
2023-02-12T12:38:37.296Z,8.80
2023-02-12T12:40:40.326Z,8.80
2023-02-12T12:42:44.587Z,8.60
2023-02-12T12:44:32.303Z,8.60
2023-02-12T12:46:40.909Z,8.60
2023-02-12T12:48:27.698Z,8.60
2023-02-12T12:50:17.071Z,8.60
2023-02-12T12:52:17.341Z,8.60
2023-02-12T12:54:02.855Z,8.50
2023-02-12T12:56:01.061Z,8.40
2023-02-12T12:57:47.695Z,8.40
2023-02-12T12:59:42.008Z,8.30
2023-02-12T13:01:33.407Z,8.30
2023-02-12T13:03:38.972Z,8.40
2023-02-12T13:05:48.612Z,8.40
2023-02-12T13:07:37.236Z,8.50
2023-02-12T13:09:39.660Z,8.60
2023-02-12T13:11:24.157Z,8.60
2023-02-12T13:13:08.159Z,8.60
2023-02-12T13:14:46.432Z,8.60
2023-02-12T13:16:24.456Z,8.70
2023-02-12T13:18:05.155Z,8.70
2023-02-12T13:19:48.383Z,8.60
2023-02-12T13:23:08.105Z,8.40
2023-02-12T13:56:14.564Z,8.10
2023-02-12T13:57:47.673Z,8.20
2023-02-12T13:59:44.377Z,8.10
2023-02-12T14:01:37.860Z,8.10
2023-02-12T14:03:12.041Z,8.10
2023-02-12T14:04:46.880Z,8.10
2023-02-12T14:06:23.458Z,8.20
2023-02-12T14:08:00.706Z,8.20
2023-02-12T14:09:40.962Z,8.10
2023-02-12T14:11:17.378Z,8.20
2023-02-12T14:12:51.009Z,8.30
2023-02-12T14:14:29.509Z,8.40
2023-02-12T14:16:21.228Z,8.40
2023-02-12T14:17:57.408Z,8.50
2023-02-12T14:19:43.318Z,8.40
2023-02-12T14:21:44.385Z,8.50
2023-02-12T14:23:28.472Z,8.40
2023-02-12T14:25:03.830Z,8.10
2023-02-12T14:26:39.257Z,7.90
2023-02-12T14:28:24.351Z,7.80
2023-02-12T14:30:20.472Z,7.90
2023-02-12T14:31:53.689Z,8.00
2023-02-12T14:33:28.277Z,8.00
2023-02-12T14:35:31.850Z,7.90
2023-02-12T14:37:13.672Z,8.00
2023-02-12T14:39:04.095Z,8.00
2023-02-12T14:40:42.865Z,8.10
2023-02-12T14:42:44.732Z,8.00
2023-02-12T14:44:46.353Z,8.20
2023-02-12T14:46:45.546Z,8.30
2023-02-12T14:48:41.482Z,8.30
2023-02-12T14:50:22.891Z,8.30
2023-02-12T14:52:01.070Z,8.20
2023-02-12T14:53:36.726Z,8.20
2023-02-12T14:55:25.317Z,8.10
2023-02-12T14:57:02.355Z,8.10
2023-02-12T14:58:37.436Z,8.10
2023-02-12T15:00:24.564Z,8.10
2023-02-12T15:02:01.701Z,8.00
2023-02-12T15:03:43.149Z,8.10
2023-02-12T15:05:21.419Z,8.00
2023-02-12T15:06:58.506Z,8.10
2023-02-12T15:08:37.984Z,8.00
2023-02-12T15:10:20.221Z,8.00
2023-02-12T15:12:01.961Z,7.90
2023-02-12T15:13:45.175Z,7.90
2023-02-12T15:15:26.366Z,7.90
2023-02-12T15:17:04.652Z,7.80
2023-02-12T15:18:49.210Z,7.80
2023-02-12T15:20:25.679Z,7.70
2023-02-12T15:21:59.168Z,7.70
2023-02-12T15:23:39.607Z,7.70
2023-02-12T15:25:18.837Z,7.70
2023-02-12T15:26:54.437Z,7.60
2023-02-12T15:28:35.047Z,7.60
2023-02-12T15:30:25.695Z,7.60
2023-02-12T15:32:02.464Z,7.60
2023-02-12T15:33:38.779Z,7.60
2023-02-12T15:35:23.584Z,7.40
2023-02-12T15:36:59.423Z,7.20
2023-02-12T15:38:35.354Z,7.20
2023-02-12T15:40:15.546Z,7.40
2023-02-12T15:41:50.772Z,7.30
2023-02-12T15:43:28.899Z,7.30
2023-02-12T15:45:22.066Z,7.10
2023-02-12T15:46:56.897Z,7.00
2023-02-12T15:48:35.633Z,7.00
2023-02-12T15:50:12.802Z,7.00
2023-02-12T16:17:01.604Z,6.70
2023-02-12T16:18:34.690Z,6.60
2023-02-12T17:32:19.316Z,6.00
2023-02-12T17:44:49.080Z,5.80
2023-02-12T19:06:09.763Z,5.60
2023-02-12T19:07:44.217Z,5.60
2023-02-12T19:09:20.230Z,5.40
2023-02-12T19:10:53.319Z,5.40
2023-02-12T19:12:26.975Z,5.40
2023-02-12T19:23:24.396Z,5.40
2023-02-12T20:08:59.423Z,5.50
2023-02-12T21:19:31.911Z,5.00
2023-02-12T21:21:07.566Z,4.90
2023-02-12T21:22:40.684Z,4.80
2023-02-12T21:24:15.458Z,4.80
2023-02-12T21:25:48.549Z,4.80
2023-02-12T21:27:21.658Z,4.60
2023-02-12T21:28:57.710Z,4.60
2023-02-12T21:30:30.770Z,4.50
2023-02-12T21:32:03.973Z,4.50
2023-02-12T21:33:37.409Z,4.40
2023-02-12T21:35:10.578Z,4.40
2023-02-12T21:36:46.249Z,4.40
2023-02-12T21:38:19.362Z,4.40
2023-02-12T21:39:52.439Z,4.30
2023-02-12T21:41:27.725Z,4.30
2023-02-12T21:43:00.789Z,4.40
2023-02-12T21:44:35.824Z,4.40
2023-02-12T21:46:09.742Z,4.40
2023-02-12T21:47:43.001Z,4.50
2023-02-12T21:49:24.600Z,4.60
2023-02-12T21:50:58.279Z,4.70
2023-02-12T21:52:31.537Z,4.70
2023-02-12T21:54:08.410Z,4.70
2023-02-12T21:55:41.490Z,4.70
2023-02-12T21:57:19.658Z,4.70
2023-02-12T21:58:53.228Z,4.70
2023-02-12T22:00:27.695Z,4.60
2023-02-12T22:02:01.755Z,4.50
2023-02-12T22:03:34.949Z,4.50
2023-02-12T22:05:08.838Z,4.40
2023-02-12T22:06:45.853Z,4.40
2023-02-12T22:08:18.918Z,4.30
2023-02-12T22:09:52.012Z,4.30
2023-02-12T22:11:25.092Z,4.20
2023-02-12T22:12:58.240Z,4.10
2023-02-12T22:14:31.516Z,4.10
2023-02-12T22:16:14.640Z,4.10
2023-02-12T22:17:47.777Z,4.10
2023-02-12T22:19:21.029Z,4.10
2023-02-12T22:20:54.114Z,4.00
2023-02-12T22:22:27.407Z,4.00
2023-02-12T22:24:02.379Z,4.00
2023-02-12T22:25:35.454Z,3.90
2023-02-12T22:27:08.540Z,3.90
2023-02-12T22:28:43.309Z,3.80
2023-02-12T22:30:17.901Z,3.70
2023-02-12T22:31:52.455Z,3.60
2023-02-12T22:33:25.679Z,3.50
2023-02-12T22:34:58.767Z,3.50
2023-02-12T22:36:32.644Z,3.60
2023-02-12T22:38:05.721Z,3.50
2023-02-12T22:39:38.822Z,3.60
2023-02-12T22:41:12.501Z,3.60
2023-02-12T22:44:21.225Z,3.40
